Time;durP1;ratioP1;P1;durP2;ratioP2;P2;SDS_P1;SDS_P2;PMS_P1;PMS_P2;Temp;Humidity;BMP_temperature;BMP_pressure;BME280_temperature;BME280_humidity;BME280_pressure;Samples;Min_cycle;Max_cycle;Signal;HPM_P1;HPM_P2
2021/08/30 00:00:42;;;;;;;;;;;;;;;21.66;56.67;99652.59;3300851;29;19993;-80
2021/08/30 00:02:23;;;;;;;;;;;;;;;21.66;56.65;99649.06;3311629;29;20019;-81
2021/08/30 00:04:03;;;;;;;;;;;;;;;21.64;56.91;99660.19;3300828;29;19929;-80
2021/08/30 00:05:44;;;;;;;;;;;;;;;21.62;57.09;99656.94;3308567;29;19929;-81
2021/08/30 00:07:24;;;;;;;;;;;;;;;21.62;57.05;99654.22;3323428;29;19936;-81
2021/08/30 00:09:05;;;;;;;;;;;;;;;21.60;57.33;99650.13;3315961;29;19929;-81
2021/08/30 00:10:46;;;;;;;;;;;;;;;21.58;57.52;99650.41;3313666;29;19936;-82
2021/08/30 00:12:26;;;;;;;;;;;;;;;21.58;57.71;99649.59;3313796;29;19929;-81
2021/08/30 00:14:07;;;;;;;;;;;;;;;21.57;57.71;99648.78;3313805;29;19936;-80
2021/08/30 00:15:47;;;;;;;;;;;;;;;21.56;58.04;99655.28;3312836;29;20393;-81
2021/08/30 00:17:28;;;;;;;;;;;;;;;21.53;58.14;99648.50;3310378;29;20019;-81
2021/08/30 00:19:08;;;;;;;;;;;;;;;21.53;58.13;99645.00;3313333;29;20428;-81
2021/08/30 00:20:49;;;;;;;;;;;;;;;21.52;58.10;99637.91;3312506;29;20367;-81
2021/08/30 00:22:30;;;;;;;;;;;;;;;21.50;58.27;99638.19;3310188;29;19990;-80
2021/08/30 00:24:10;;;;;;;;;;;;;;;21.49;58.39;99636.56;3313361;29;20309;-80
2021/08/30 00:25:51;;;;;;;;;;;;;;;21.49;58.23;99633.84;3313919;29;19929;-80
2021/08/30 00:27:31;;;;;;;;;;;;;;;21.48;58.39;99626.81;3312331;29;19967;-80
2021/08/30 00:29:12;;;;;;;;;;;;;;;21.49;58.22;99633.03;3313042;29;19929;-80
2021/08/30 00:30:52;;;;;;;;;;;;;;;21.47;58.30;99632.47;3314043;29;19968;-80
2021/08/30 00:32:33;;;;;;;;;;;;;;;21.48;58.17;99629.50;3313197;29;19929;-81
2021/08/30 00:34:17;;;;;;;;;;;;;;;21.46;58.08;99630.88;3312105;29;19936;-81
2021/08/30 00:35:57;;;;;;;;;;;;;;;21.45;58.08;99623.78;3312998;29;19929;-80
2021/08/30 00:37:38;;;;;;;;;;;;;;;21.44;58.07;99624.88;3312911;29;19937;-80
2021/08/30 00:39:19;;;;;;;;;;;;;;;21.42;58.10;99629.75;3312085;29;19933;-80
2021/08/30 00:41:00;;;;;;;;;;;;;;;21.41;58.06;99644.41;3314380;29;19929;-80
2021/08/30 00:42:41;;;;;;;;;;;;;;;21.41;58.08;99641.69;3314076;29;19921;-80
2021/08/30 00:44:22;;;;;;;;;;;;;;;21.41;57.78;99639.00;3313983;29;20374;-80
2021/08/30 00:46:02;;;;;;;;;;;;;;;21.40;57.96;99638.19;3313859;29;20377;-80
2021/08/30 00:47:43;;;;;;;;;;;;;;;21.40;57.89;99642.75;3325139;29;19929;-80
2021/08/30 00:49:24;;;;;;;;;;;;;;;21.40;57.95;99645.47;3315813;29;19940;-80
2021/08/30 00:51:05;;;;;;;;;;;;;;;21.40;57.87;99649.03;3313176;29;19925;-81
2021/08/30 00:52:46;;;;;;;;;;;;;;;21.39;58.09;99638.44;3313443;29;20401;-81
2021/08/30 00:54:27;;;;;;;;;;;;;;;21.38;57.94;99636.78;3313432;29;19922;-81
2021/08/30 00:56:07;;;;;;;;;;;;;;;21.37;57.74;99637.84;3312255;29;19929;-82
2021/08/30 00:57:48;;;;;;;;;;;;;;;21.37;57.68;99635.13;3313304;29;19936;-80
2021/08/30 00:59:28;;;;;;;;;;;;;;;21.37;57.84;99635.13;3312875;29;20408;-82
2021/08/30 01:01:09;;;;;;;;;;;;;;;21.34;57.69;99637.28;3312821;29;19929;-81
2021/08/30 01:02:50;;;;;;;;;;;;;;;21.33;57.79;99627.53;3311860;29;20019;-81
2021/08/30 01:04:30;;;;;;;;;;;;;;;21.33;57.53;99635.69;3312793;29;19929;-80
2021/08/30 01:06:25;;;;;;;;;;;;;;;21.34;57.89;99631.06;3312941;29;20441;-80
2021/08/30 01:08:12;;;;;;;;;;;;;;;21.31;57.88;99643.25;3311710;29;19968;-80
2021/08/30 01:09:53;;;;;;;;;;;;;;;21.30;57.85;99636.22;3312770;29;19929;-81
2021/08/30 01:11:34;;;;;;;;;;;;;;;21.28;58.10;99632.94;3312754;29;19929;-80
2021/08/30 01:13:25;;;;;;;;;;;;;;;21.27;58.08;99634.03;3311838;29;19944;-80
2021/08/30 01:15:08;;;;;;;;;;;;;;;21.27;58.08;99627.78;3310471;29;20296;-80
2021/08/30 01:16:49;;;;;;;;;;;;;;;21.27;58.04;99631.34;3309710;29;19929;-80
2021/08/30 01:18:31;;;;;;;;;;;;;;;21.26;58.11;99629.69;3309662;29;19936;-81
2021/08/30 01:20:15;;;;;;;;;;;;;;;21.26;58.21;99628.88;3297129;29;19933;-81
2021/08/30 01:21:55;;;;;;;;;;;;;;;21.24;57.95;99631.03;3310348;29;19929;-81
2021/08/30 01:23:37;;;;;;;;;;;;;;;21.23;58.07;99634.84;3312504;29;20020;-80
2021/08/30 01:25:19;;;;;;;;;;;;;;;21.22;58.33;99628.59;3311757;29;19972;-80
2021/08/30 01:26:59;;;;;;;;;;;;;;;21.20;58.26;99619.91;3312812;29;20035;-80
2021/08/30 01:28:41;;;;;;;;;;;;;;;21.18;58.23;99622.06;3311653;29;19929;-80
2021/08/30 01:30:22;;;;;;;;;;;;;;;21.18;58.42;99619.38;3312944;29;19936;-80
2021/08/30 01:32:05;;;;;;;;;;;;;;;21.17;58.30;99620.47;3312775;29;20385;-80
2021/08/30 01:33:46;;;;;;;;;;;;;;;21.17;58.10;99615.03;3311952;29;19946;-81
2021/08/30 01:35:27;;;;;;;;;;;;;;;21.16;58.04;99613.38;3297029;30;20433;-81
2021/08/30 01:37:08;;;;;;;;;;;;;;;21.16;58.36;99613.38;3307056;29;19959;-81
2021/08/30 01:38:49;;;;;;;;;;;;;;;21.14;58.22;99618.25;3309249;29;19986;-81
2021/08/30 01:40:30;;;;;;;;;;;;;;;21.15;58.08;99617.19;3296690;29;19936;-80
2021/08/30 01:42:11;;;;;;;;;;;;;;;21.15;58.23;99616.38;3306697;29;19936;-81
2021/08/30 01:43:51;;;;;;;;;;;;;;;21.14;58.31;99615.53;3297076;29;19930;-81
2021/08/30 01:45:32;;;;;;;;;;;;;;;21.14;58.23;99620.97;3310168;29;20883;-83
2021/08/30 01:47:12;;;;;;;;;;;;;;;21.12;58.32;99601.47;3311907;29;20019;-80
2021/08/30 01:48:53;;;;;;;;;;;;;;;21.11;58.21;99605.25;3312436;29;19929;-80
2021/08/30 01:50:34;;;;;;;;;;;;;;;21.11;58.38;99602.53;3312405;29;19936;-80
2021/08/30 01:52:14;;;;;;;;;;;;;;;21.10;58.14;99604.44;3324239;29;19929;-80
2021/08/30 01:53:55;;;;;;;;;;;;;;;21.09;58.10;99601.97;3314315;29;19929;-81
2021/08/30 01:57:20;;;;;;;;;;;;;;;21.08;58.30;99606.59;3313974;29;19929;-80
2021/08/30 02:01:00;;;;;;;;;;;;;;;21.06;58.28;99613.34;3316392;29;19936;-80
2021/08/30 02:02:40;;;;;;;;;;;;;;;21.05;58.32;99614.44;3302725;29;19930;-80
2021/08/30 02:04:21;;;;;;;;;;;;;;;21.03;58.26;99613.88;3313708;29;19933;-81
2021/08/30 02:06:02;;;;;;;;;;;;;;;21.03;58.19;99611.19;3314978;29;19936;-82
2021/08/30 02:07:43;;;;;;;;;;;;;;;21.01;58.31;99616.03;3314967;29;20349;-80
2021/08/30 02:09:23;;;;;;;;;;;;;;;21.00;58.29;99611.72;3315048;29;19990;-80
2021/08/30 02:11:05;;;;;;;;;;;;;;;21.00;58.61;99614.44;3314813;29;19929;-80
2021/08/30 02:12:46;;;;;;;;;;;;;;;20.98;58.70;99608.44;3315045;29;20346;-81
2021/08/30 02:14:26;;;;;;;;;;;;;;;20.98;58.41;99617.38;3315026;29;19929;-80
2021/08/30 02:16:07;;;;;;;;;;;;;;;20.98;58.37;99613.88;3314690;29;19936;-80
2021/08/30 02:17:48;;;;;;;;;;;;;;;20.98;58.38;99627.41;3314752;29;19929;-81
2021/08/30 02:19:34;;;;;;;;;;;;;;;20.98;58.63;99616.56;3313676;29;20309;-81
2021/08/30 02:21:18;;;;;;;;;;;;;;;20.97;58.78;99625.78;3299671;30;19929;-81
2021/08/30 02:22:58;;;;;;;;;;;;;;;20.96;58.64;99627.69;3315787;29;19977;-82
2021/08/30 02:24:40;;;;;;;;;;;;;;;20.95;58.72;99627.94;3316788;29;20441;-82
2021/08/30 02:26:21;;;;;;;;;;;;;;;20.94;58.77;99620.91;3318498;29;19936;-82
2021/08/30 02:28:02;;;;;;;;;;;;;;;20.92;58.91;99624.69;3315462;29;19936;-79
2021/08/30 02:29:46;;;;;;;;;;;;;;;20.88;59.19;99623.59;3314377;29;19929;-80
2021/08/30 02:31:27;;;;;;;;;;;;;;;20.90;58.99;99634.16;3315270;29;19936;-80
2021/08/30 02:33:10;;;;;;;;;;;;;;;20.89;59.34;99638.75;3314281;29;20397;-81
2021/08/30 02:34:53;;;;;;;;;;;;;;;20.90;59.01;99639.56;3314542;29;19929;-81
2021/08/30 02:36:34;;;;;;;;;;;;;;;20.89;59.34;99643.38;3314946;29;19930;-81
2021/08/30 02:38:14;;;;;;;;;;;;;;;20.89;58.97;99635.25;3314734;29;20838;-81
2021/08/30 02:39:55;;;;;;;;;;;;;;;20.88;58.95;99653.41;3313802;29;20412;-81
2021/08/30 02:41:35;;;;;;;;;;;;;;;20.89;58.90;99667.75;3314256;29;19929;-81
2021/08/30 02:43:16;;;;;;;;;;;;;;;20.89;59.24;99711.91;3319145;29;19972;-81
2021/08/30 02:44:56;;;;;;;;;;;;;;;20.88;59.03;99742.81;3322083;29;19937;-80
2021/08/30 02:46:37;;;;;;;;;;;;;;;20.88;59.28;99710.28;3318774;29;19955;-80
2021/08/30 02:48:17;;;;;;;;;;;;;;;20.85;59.20;99716.22;3312019;29;20349;-80
2021/08/30 02:49:58;;;;;;;;;;;;;;;20.85;58.83;99735.19;3311903;29;19975;-80
2021/08/30 02:51:40;;;;;;;;;;;;;;;20.84;58.77;99720.00;3311368;29;19964;-80
2021/08/30 02:53:21;;;;;;;;;;;;;;;20.84;58.85;99728.13;3311125;29;19935;-81
2021/08/30 02:55:01;;;;;;;;;;;;;;;20.85;58.80;99724.34;3313512;29;20298;-81
2021/08/30 02:56:42;;;;;;;;;;;;;;;20.85;59.01;99710.78;3314460;29;20309;-81
2021/08/30 02:58:23;;;;;;;;;;;;;;;20.88;58.81;99706.75;3313278;29;20019;-80
2021/08/30 03:00:04;;;;;;;;;;;;;;;20.89;58.68;99709.22;3310681;29;20020;-82
2021/08/30 03:01:44;;;;;;;;;;;;;;;20.91;58.84;99714.38;3310753;29;19937;-80
2021/08/30 03:03:25;;;;;;;;;;;;;;;20.92;58.60;99718.72;3310488;29;19962;-81
2021/08/30 03:05:06;;;;;;;;;;;;;;;20.94;58.48;99713.84;3314314;29;20002;-82
2021/08/30 03:06:46;;;;;;;;;;;;;;;20.96;58.74;99700.84;3314391;29;19929;-82
2021/08/30 03:08:27;;;;;;;;;;;;;;;20.98;58.39;99706.81;3315522;29;19936;-82
2021/08/30 03:10:07;;;;;;;;;;;;;;;21.00;58.44;99706.56;3315344;29;19929;-82
2021/08/30 03:11:49;;;;;;;;;;;;;;;21.01;58.39;99710.88;3316045;29;20023;-79
2021/08/30 03:13:29;;;;;;;;;;;;;;;21.02;58.26;99707.94;3315416;29;19929;-81
2021/08/30 03:15:14;;;;;;;;;;;;;;;21.02;58.50;99717.97;3311835;29;19936;-80
2021/08/30 03:16:55;;;;;;;;;;;;;;;21.04;58.23;99713.06;3317156;29;19936;-80
2021/08/30 03:18:38;;;;;;;;;;;;;;;21.06;58.20;99719.84;3316645;29;19928;-80
2021/08/30 03:20:19;;;;;;;;;;;;;;;21.07;58.25;99717.97;3318592;29;19929;-80
2021/08/30 03:22:00;;;;;;;;;;;;;;;21.09;58.41;99723.94;3316187;29;19936;-81
2021/08/30 03:23:41;;;;;;;;;;;;;;;21.09;58.26;99713.09;3310940;29;19929;-81
2021/08/30 03:25:22;;;;;;;;;;;;;;;21.11;58.63;99716.34;3313961;29;20409;-80
2021/08/30 03:27:03;;;;;;;;;;;;;;;21.12;58.40;99709.88;3313230;29;20416;-80
2021/08/30 03:28:43;;;;;;;;;;;;;;;21.13;58.24;99712.31;3313961;29;19936;-81
2021/08/30 03:30:24;;;;;;;;;;;;;;;21.16;58.47;99718.28;3313833;29;19980;-81
2021/08/30 03:32:05;;;;;;;;;;;;;;;21.16;58.26;99716.38;3311657;29;19929;-81
2021/08/30 03:33:45;;;;;;;;;;;;;;;21.14;58.27;99710.41;3316075;29;20421;-81
2021/08/30 03:35:26;;;;;;;;;;;;;;;21.10;58.42;99714.75;3327126;29;19936;-81
2021/08/30 03:37:07;;;;;;;;;;;;;;;21.07;58.35;99715.28;3317486;29;19929;-81
2021/08/30 03:38:48;;;;;;;;;;;;;;;21.03;59.35;99711.44;3325946;29;20668;-81
2021/08/30 03:40:28;;;;;;;;;;;;;;;21.00;59.40;99707.38;3314666;29;19936;-79
2021/08/30 03:42:09;;;;;;;;;;;;;;;20.98;59.53;99700.56;3311317;29;20287;-80
2021/08/30 03:43:50;;;;;;;;;;;;;;;20.97;60.01;99698.97;3310832;29;19929;-80
2021/08/30 03:45:30;;;;;;;;;;;;;;;20.94;60.07;99691.34;3310574;29;19929;-80
2021/08/30 03:47:11;;;;;;;;;;;;;;;20.89;60.27;99690.25;3311429;29;19929;-79
2021/08/30 03:48:52;;;;;;;;;;;;;;;20.86;60.80;99679.94;3312762;29;19936;-80
2021/08/30 03:50:33;;;;;;;;;;;;;;;20.83;61.16;99685.88;3315516;29;19929;-80
2021/08/30 03:52:13;;;;;;;;;;;;;;;20.82;61.24;99681.53;3313731;29;20077;-80
2021/08/30 03:53:54;;;;;;;;;;;;;;;20.81;61.33;99674.50;3310729;29;19933;-80
2021/08/30 03:55:35;;;;;;;;;;;;;;;20.81;61.35;99674.50;3311858;29;19945;-80
2021/08/30 03:57:15;;;;;;;;;;;;;;;20.80;61.56;99670.13;3314380;29;19929;-81
2021/08/30 03:58:56;;;;;;;;;;;;;;;20.78;61.73;99658.75;3313713;29;19929;-80
2021/08/30 04:00:37;;;;;;;;;;;;;;;20.79;61.91;99663.09;3311550;29;19929;-80
2021/08/30 04:02:18;;;;;;;;;;;;;;;20.78;62.00;99669.59;3311032;29;19929;-81
2021/08/30 04:03:59;;;;;;;;;;;;;;;20.77;62.24;99665.25;3312542;29;19992;-80
2021/08/30 04:05:40;;;;;;;;;;;;;;;20.77;62.24;99667.13;3314047;29;19929;-80
2021/08/30 04:07:21;;;;;;;;;;;;;;;20.74;62.47;99662.25;3314562;29;19936;-80
2021/08/30 04:09:02;;;;;;;;;;;;;;;20.73;62.40;99661.44;3314988;29;19933;-81
2021/08/30 04:10:42;;;;;;;;;;;;;;;20.73;62.73;99657.91;3316873;29;20034;-82
2021/08/30 04:12:23;;;;;;;;;;;;;;;20.72;62.68;99667.09;3314151;29;20328;-82
2021/08/30 04:14:03;;;;;;;;;;;;;;;20.71;63.06;99660.06;3316610;29;19979;-82
2021/08/30 04:15:44;;;;;;;;;;;;;;;20.69;63.10;99661.13;3318161;29;20000;-81
2021/08/30 04:17:24;;;;;;;;;;;;;;;20.68;62.96;99664.13;3317130;29;19929;-82
2021/08/30 04:19:05;;;;;;;;;;;;;;;20.67;63.36;99676.00;3313864;29;19988;-82
2021/08/30 04:20:45;;;;;;;;;;;;;;;20.66;63.71;99672.50;3314367;29;19960;-82
2021/08/30 04:22:26;;;;;;;;;;;;;;;20.66;63.61;99677.09;3313580;29;19929;-81
2021/08/30 04:24:07;;;;;;;;;;;;;;;20.65;63.68;99679.00;3313259;29;19964;-81
2021/08/30 04:25:47;;;;;;;;;;;;;;;20.67;63.68;99689.56;3313351;29;19933;-81
2021/08/30 04:27:27;;;;;;;;;;;;;;;20.65;63.75;99689.00;3313846;29;19936;-81
2021/08/30 04:29:08;;;;;;;;;;;;;;;20.63;63.84;99697.41;3313530;29;20406;-81
2021/08/30 04:30:49;;;;;;;;;;;;;;;20.63;63.94;99691.19;3313180;29;20035;-82
2021/08/30 04:32:35;;;;;;;;;;;;;;;20.63;64.41;99689.28;3313565;29;19933;-82
2021/08/30 04:34:24;;;;;;;;;;;;;;;20.61;64.07;99671.66;3314324;29;19968;-81
2021/08/30 04:36:05;;;;;;;;;;;;;;;20.61;64.62;99671.66;3314006;29;19955;-80
2021/08/30 04:37:45;;;;;;;;;;;;;;;20.59;64.29;99681.94;3314013;29;19929;-81
2021/08/30 04:39:26;;;;;;;;;;;;;;;20.59;64.60;99673.81;3313132;29;19929;-82
2021/08/30 04:41:07;;;;;;;;;;;;;;;20.59;64.86;99671.91;3314006;29;20370;-81
2021/08/30 04:42:47;;;;;;;;;;;;;;;20.59;65.00;99660.25;3325760;29;19935;-81
2021/08/30 04:44:28;;;;;;;;;;;;;;;20.58;64.83;99647.81;3316777;29;19928;-82
2021/08/30 04:46:09;;;;;;;;;;;;;;;20.59;64.90;99644.00;3313715;29;19935;-81
2021/08/30 04:47:50;;;;;;;;;;;;;;;20.59;65.01;99655.66;3313976;29;20398;-82
2021/08/30 04:49:30;;;;;;;;;;;;;;;20.59;65.10;99652.13;3314180;29;19929;-81
2021/08/30 04:51:11;;;;;;;;;;;;;;;20.58;65.28;99655.94;3313087;29;20413;-80
2021/08/30 04:52:51;;;;;;;;;;;;;;;20.57;65.49;99663.22;3314023;29;19928;-80
2021/08/30 04:54:32;;;;;;;;;;;;;;;20.59;65.32;99657.56;3314075;29;19933;-81
2021/08/30 04:56:12;;;;;;;;;;;;;;;20.60;65.21;99661.88;3314057;29;19929;-80
2021/08/30 04:57:53;;;;;;;;;;;;;;;20.62;65.40;99673.28;3313843;29;20051;-82
2021/08/30 04:59:34;;;;;;;;;;;;;;;20.64;65.65;99673.84;3313482;29;20029;-81
2021/08/30 05:01:14;;;;;;;;;;;;;;;20.63;65.63;99664.91;3314132;29;20462;-80
2021/08/30 05:02:55;;;;;;;;;;;;;;;20.65;65.67;99662.75;3314224;29;20321;-80
2021/08/30 05:04:36;;;;;;;;;;;;;;;20.65;65.72;99661.91;3313810;29;19971;-81
2021/08/30 05:06:17;;;;;;;;;;;;;;;20.65;65.90;99656.50;3314405;29;19932;-80
2021/08/30 05:07:57;;;;;;;;;;;;;;;20.65;65.88;99661.91;3314460;29;19968;-79
2021/08/30 05:09:38;;;;;;;;;;;;;;;20.65;66.29;99664.63;3314168;29;19933;-79
2021/08/30 05:11:18;;;;;;;;;;;;;;;20.67;65.97;99659.75;3327148;29;19968;-81
2021/08/30 05:12:59;;;;;;;;;;;;;;;20.69;65.96;99657.63;3317441;29;19952;-80
2021/08/30 05:14:39;;;;;;;;;;;;;;;20.70;66.24;99653.81;3316210;29;19960;-81
2021/08/30 05:16:20;;;;;;;;;;;;;;;20.73;66.03;99653.31;3316262;29;19929;-81
2021/08/30 05:18:01;;;;;;;;;;;;;;;20.76;66.04;99650.09;3314413;29;20346;-81
2021/08/30 05:19:41;;;;;;;;;;;;;;;20.79;65.99;99652.25;3315352;29;19929;-81
2021/08/30 05:21:22;;;;;;;;;;;;;;;20.82;66.02;99657.16;3316932;29;19954;-80
2021/08/30 05:23:02;;;;;;;;;;;;;;;20.85;66.27;99656.63;3318255;29;19933;-80
2021/08/30 05:24:43;;;;;;;;;;;;;;;20.88;66.06;99653.41;3317482;29;19929;-84
2021/08/30 05:26:25;;;;;;;;;;;;;;;20.90;66.08;99651.22;3317131;29;19933;-80
2021/08/30 05:28:06;;;;;;;;;;;;;;;20.92;66.17;99646.34;3318263;29;20313;-79
2021/08/30 05:29:46;;;;;;;;;;;;;;;20.94;66.11;99643.41;3318527;29;19929;-81
2021/08/30 05:31:27;;;;;;;;;;;;;;;20.96;66.20;99645.81;3318449;29;19936;-81
2021/08/30 05:33:08;;;;;;;;;;;;;;;20.97;66.14;99653.69;3317582;29;20011;-80
2021/08/30 05:34:48;;;;;;;;;;;;;;;20.97;66.38;99642.06;3318311;29;19936;-80
2021/08/30 05:36:29;;;;;;;;;;;;;;;20.96;66.55;99648.53;3318036;29;19986;-80
2021/08/30 05:38:09;;;;;;;;;;;;;;;20.97;66.65;99644.75;3317048;29;19929;-80
2021/08/30 05:39:50;;;;;;;;;;;;;;;20.97;66.68;99647.47;3318010;29;20404;-79
2021/08/30 05:41:30;;;;;;;;;;;;;;;20.98;66.52;99649.09;3318696;29;19929;-80
2021/08/30 05:43:11;;;;;;;;;;;;;;;21.01;66.42;99643.13;3318692;29;20345;-78
2021/08/30 05:44:51;;;;;;;;;;;;;;;21.04;66.50;99645.31;3334053;29;19936;-79
2021/08/30 05:46:32;;;;;;;;;;;;;;;21.05;66.46;99638.84;3325371;29;19941;-80
2021/08/30 05:48:12;;;;;;;;;;;;;;;21.06;66.66;99648.59;3323399;29;20017;-79
2021/08/30 05:49:53;;;;;;;;;;;;;;;21.08;66.36;99639.09;3319933;29;19935;-80
2021/08/30 05:51:33;;;;;;;;;;;;;;;21.11;66.48;99640.47;3316770;29;20309;-80
2021/08/30 05:53:14;;;;;;;;;;;;;;;21.13;66.07;99646.44;3317347;29;19929;-81
2021/08/30 05:54:54;;;;;;;;;;;;;;;21.16;66.28;99648.63;3318417;29;20392;-81
2021/08/30 05:56:35;;;;;;;;;;;;;;;21.19;66.33;99647.28;3318624;29;19929;-79
2021/08/30 05:58:16;;;;;;;;;;;;;;;21.21;66.40;99645.13;3318296;29;19999;-80
2021/08/30 05:59:56;;;;;;;;;;;;;;;21.22;66.58;99644.88;3320006;29;19929;-80
2021/08/30 06:01:38;;;;;;;;;;;;;;;21.22;66.56;99650.28;3316764;29;20031;-80
2021/08/30 06:03:18;;;;;;;;;;;;;;;21.23;66.61;99657.31;3330529;29;19992;-80
2021/08/30 06:04:59;;;;;;;;;;;;;;;21.24;66.75;99658.94;3321215;29;19936;-79
2021/08/30 06:06:39;;;;;;;;;;;;;;;21.24;66.52;99663.56;3320083;29;19988;-81
2021/08/30 06:08:20;;;;;;;;;;;;;;;21.25;66.40;99667.91;3319225;29;20039;-81
2021/08/30 06:10:00;;;;;;;;;;;;;;;21.25;66.33;99674.16;3319292;29;19972;-80
2021/08/30 06:11:41;;;;;;;;;;;;;;;21.25;66.75;99676.88;3318184;29;19936;-80
2021/08/30 06:13:22;;;;;;;;;;;;;;;21.24;66.63;99668.97;3319421;29;19929;-81
2021/08/30 06:15:03;;;;;;;;;;;;;;;21.24;66.60;99674.41;3319730;29;19929;-82
2021/08/30 06:16:43;;;;;;;;;;;;;;;21.23;66.51;99661.94;3319048;29;19968;-82
2021/08/30 06:18:25;;;;;;;;;;;;;;;21.23;66.53;99668.19;3319606;29;20421;-80
2021/08/30 06:20:06;;;;;;;;;;;;;;;21.23;66.33;99678.22;3319410;29;19928;-81
2021/08/30 06:21:47;;;;;;;;;;;;;;;21.23;66.52;99689.84;3320278;29;19929;-81
2021/08/30 06:23:29;;;;;;;;;;;;;;;21.23;66.19;99692.56;3320866;29;19971;-81
2021/08/30 06:25:10;;;;;;;;;;;;;;;21.25;66.48;99705.88;3320287;29;19937;-80
2021/08/30 06:26:50;;;;;;;;;;;;;;;21.25;66.39;99708.59;3321452;29;19929;-80
2021/08/30 06:28:31;;;;;;;;;;;;;;;21.25;66.34;99711.28;3321303;29;20036;-80
2021/08/30 06:30:11;;;;;;;;;;;;;;;21.27;66.22;99711.81;3331733;29;19976;-80
2021/08/30 06:31:52;;;;;;;;;;;;;;;21.28;65.74;99714.28;3321797;29;19933;-80
2021/08/30 06:33:33;;;;;;;;;;;;;;;21.28;65.96;99714.28;3317211;29;19978;-81
2021/08/30 06:35:15;;;;;;;;;;;;;;;21.27;66.25;99701.81;3317433;29;19929;-81
2021/08/30 06:36:55;;;;;;;;;;;;;;;21.29;66.12;99704.25;3318058;29;19968;-81
2021/08/30 06:38:36;;;;;;;;;;;;;;;21.28;66.33;99708.06;3329571;29;19928;-82
2021/08/30 06:40:17;;;;;;;;;;;;;;;21.28;66.00;99702.63;3317920;29;19929;-82
2021/08/30 06:41:58;;;;;;;;;;;;;;;21.26;66.42;99700.16;3319078;29;19976;-80
2021/08/30 06:43:38;;;;;;;;;;;;;;;21.27;66.05;99698.25;3317272;29;19977;-81
2021/08/30 06:45:22;;;;;;;;;;;;;;;21.27;66.07;99695.56;3314522;29;19929;-81
2021/08/30 06:47:03;;;;;;;;;;;;;;;21.28;66.33;99698.00;3326136;29;20393;-80
2021/08/30 06:48:43;;;;;;;;;;;;;;;21.30;66.41;99704.00;3318969;29;19983;-82
2021/08/30 06:50:24;;;;;;;;;;;;;;;21.30;66.16;99706.69;3315863;29;19933;-80
2021/08/30 06:52:05;;;;;;;;;;;;;;;21.29;66.41;99699.63;3315596;29;19946;-80
2021/08/30 06:53:46;;;;;;;;;;;;;;;21.33;66.06;99706.16;3314992;29;20398;-81
2021/08/30 06:55:26;;;;;;;;;;;;;;;21.35;66.25;99704.00;3316264;29;19951;-80
2021/08/30 06:57:07;;;;;;;;;;;;;;;21.38;66.50;99693.72;3314320;29;19940;-80
2021/08/30 06:58:47;;;;;;;;;;;;;;;21.40;66.13;99700.53;3315326;29;19933;-80
2021/08/30 07:00:28;;;;;;;;;;;;;;;21.43;66.12;99693.78;3314691;29;20308;-81
2021/08/30 07:02:08;;;;;;;;;;;;;;;21.44;66.23;99696.19;3313705;29;20365;-81
2021/08/30 07:03:49;;;;;;;;;;;;;;;21.46;66.39;99698.66;3314538;29;20401;-82
2021/08/30 07:05:30;;;;;;;;;;;;;;;21.48;66.26;99691.88;3314654;29;20420;-80
2021/08/30 07:07:10;;;;;;;;;;;;;;;21.49;66.38;99695.41;3325899;29;20025;-81
2021/08/30 07:08:51;;;;;;;;;;;;;;;21.47;66.48;99684.81;3317037;29;20021;-82
2021/08/30 07:10:31;;;;;;;;;;;;;;;21.46;66.68;99694.03;3325782;29;20016;-81
2021/08/30 07:12:12;;;;;;;;;;;;;;;21.47;66.74;99694.84;3316378;29;20486;-81
2021/08/30 07:13:53;;;;;;;;;;;;;;;21.49;66.83;99692.69;3325760;29;19929;-80
2021/08/30 07:15:34;;;;;;;;;;;;;;;21.52;66.45;99695.69;3316784;29;19984;-80
2021/08/30 07:17:14;;;;;;;;;;;;;;;21.52;66.38;99694.88;3314322;29;20397;-80
2021/08/30 07:18:55;;;;;;;;;;;;;;;21.52;66.62;99694.88;3314303;29;19929;-80
2021/08/30 07:20:35;;;;;;;;;;;;;;;21.54;66.45;99700.84;3314072;29;19929;-80
2021/08/30 07:22:16;;;;;;;;;;;;;;;21.56;66.57;99696.78;3314174;29;19935;-81
2021/08/30 07:23:57;;;;;;;;;;;;;;;21.60;66.34;99694.34;3314067;29;19929;-82
2021/08/30 07:25:37;;;;;;;;;;;;;;;21.65;66.33;99702.50;3313196;29;19954;-81
2021/08/30 07:27:18;;;;;;;;;;;;;;;21.71;66.33;99698.72;3314275;29;19985;-79
2021/08/30 07:28:58;;;;;;;;;;;;;;;21.77;65.90;99700.38;3313939;29;19929;-81
2021/08/30 07:30:39;;;;;;;;;;;;;;;21.82;65.74;99706.91;3325517;29;20356;-80
2021/08/30 07:32:19;;;;;;;;;;;;;;;21.85;65.75;99706.34;3317158;29;20013;-80
2021/08/30 07:34:00;;;;;;;;;;;;;;;21.85;65.62;99712.59;3315521;29;19983;-81
2021/08/30 07:35:41;;;;;;;;;;;;;;;21.84;65.54;99712.84;3313820;29;20337;-80
2021/08/30 07:37:21;;;;;;;;;;;;;;;21.80;65.48;99706.34;3314092;29;19964;-80
2021/08/30 07:39:04;;;;;;;;;;;;;;;21.73;65.45;99707.41;3314320;29;20019;-81
2021/08/30 07:40:44;;;;;;;;;;;;;;;21.68;66.00;99706.56;3316041;29;19929;-81
2021/08/30 07:42:25;;;;;;;;;;;;;;;21.65;65.98;99707.13;3315808;29;19964;-81
2021/08/30 07:44:05;;;;;;;;;;;;;;;21.64;65.84;99714.44;3317055;29;19929;-81
2021/08/30 07:45:46;;;;;;;;;;;;;;;21.62;65.78;99715.78;3313631;29;19993;-81
2021/08/30 07:47:27;;;;;;;;;;;;;;;21.60;65.56;99718.75;3314124;29;19929;-81
2021/08/30 07:49:07;;;;;;;;;;;;;;;21.59;65.86;99719.03;3313699;29;20508;-80
2021/08/30 07:50:48;;;;;;;;;;;;;;;21.58;65.62;99729.06;3315963;29;20378;-80
2021/08/30 07:52:28;;;;;;;;;;;;;;;21.58;65.57;99728.25;3316870;29;19932;-81
2021/08/30 07:54:09;;;;;;;;;;;;;;;21.58;65.63;99731.75;3314720;29;19936;-80
2021/08/30 07:55:49;;;;;;;;;;;;;;;21.58;65.69;99731.75;3315949;29;19929;-82
2021/08/30 07:57:30;;;;;;;;;;;;;;;21.59;65.57;99719.84;3316217;29;19972;-80
2021/08/30 07:59:11;;;;;;;;;;;;;;;21.61;65.32;99722.28;3317194;29;19929;-82
2021/08/30 08:00:51;;;;;;;;;;;;;;;21.62;65.30;99730.16;3316521;29;19981;-81
2021/08/30 08:02:32;;;;;;;;;;;;;;;21.63;65.36;99722.84;3316711;29;19959;-81
2021/08/30 08:04:13;;;;;;;;;;;;;;;21.64;65.34;99727.19;3315009;29;19967;-81
2021/08/30 08:05:53;;;;;;;;;;;;;;;21.65;65.27;99721.50;3314706;29;20306;-81
2021/08/30 08:07:34;;;;;;;;;;;;;;;21.67;65.13;99716.63;3316715;29;20428;-80
2021/08/30 08:09:14;;;;;;;;;;;;;;;21.70;65.01;99716.06;3315386;29;19937;-81
2021/08/30 08:10:56;;;;;;;;;;;;;;;21.71;64.93;99715.00;3314540;29;19929;-81
2021/08/30 08:12:36;;;;;;;;;;;;;;;21.74;64.62;99705.53;3314244;29;19939;-80
2021/08/30 08:14:17;;;;;;;;;;;;;;;21.78;64.69;99714.75;3313661;29;19929;-80
2021/08/30 08:15:57;;;;;;;;;;;;;;;21.85;64.36;99711.78;3315291;29;19940;-79
2021/08/30 08:17:38;;;;;;;;;;;;;;;21.95;64.44;99711.81;3315400;29;19982;-79
2021/08/30 08:19:19;;;;;;;;;;;;;;;22.10;64.09;99711.00;3316599;29;19929;-79
2021/08/30 08:21:04;;;;;;;;;;;;;;;22.27;63.53;99702.63;3316878;29;19929;-82
2021/08/30 08:22:44;;;;;;;;;;;;;;;22.48;63.07;99704.22;3313705;29;20381;-82
2021/08/30 08:24:25;;;;;;;;;;;;;;;22.69;62.82;99706.94;3323986;29;20024;-81
2021/08/30 08:26:06;;;;;;;;;;;;;;;22.84;62.46;99701.47;3316719;29;20021;-80
2021/08/30 08:27:46;;;;;;;;;;;;;;;22.97;62.42;99700.09;3314628;29;19968;-80
2021/08/30 08:29:28;;;;;;;;;;;;;;;23.06;61.90;99701.19;3316827;29;19978;-81
2021/08/30 08:31:08;;;;;;;;;;;;;;;23.15;61.53;99699.50;3313975;29;19960;-81
2021/08/30 08:32:49;;;;;;;;;;;;;;;23.32;61.23;99704.59;3313493;29;20416;-81
2021/08/30 08:34:29;;;;;;;;;;;;;;;23.62;60.74;99700.09;3314579;29;19929;-81
2021/08/30 08:36:10;;;;;;;;;;;;;;;24.00;60.17;99698.53;3314615;29;19929;-81
2021/08/30 08:37:50;;;;;;;;;;;;;;;24.43;59.29;99698.75;3315625;29;19929;-81
2021/08/30 08:39:31;;;;;;;;;;;;;;;24.87;58.43;99705.16;3328897;29;20505;-82
2021/08/30 08:41:12;;;;;;;;;;;;;;;25.29;57.63;99698.16;3317951;29;19936;-82
2021/08/30 08:42:52;;;;;;;;;;;;;;;25.74;57.14;99704.09;3317182;29;19929;-81
2021/08/30 08:44:33;;;;;;;;;;;;;;;26.13;56.42;99700.28;3314660;29;19986;-81
2021/08/30 08:46:13;;;;;;;;;;;;;;;26.33;56.00;99705.41;3314102;29;19929;-81
2021/08/30 08:47:54;;;;;;;;;;;;;;;26.39;55.61;99698.75;3301288;30;20028;-81
2021/08/30 08:49:34;;;;;;;;;;;;;;;26.35;55.25;99699.66;3313222;29;20031;-81